Monroe County Airport
KBMG : now visible

Airfield :











YOU CAN JOIN US ON...

 
LOGIN :

Register | Disclaimer

   EN    FR    IT 

 









Legend :    VFR   Marginal VFR   IFR   Intensive IFR   Very Intensive IFR
Visi :
Ceiling :
>= 8 km
>= 3000ft
5 to 8 km
1000 to 3000 ft
1500m to 5 km
500 to 1000 ft
800 to 1500m
200 to 500 ft
< 800m
< 200 ft
Symbols :   Thunderstorms  Fog  Heavy snow  Heavy precipitations  Wind > 20 kt






- Airport Elevation : 846 ft
- IATA code : BMG


KBMG - Monroe County

CURRENT METAR :
  • 150453Z AUTO 34005KT 10SM CLR 07/M01 A3003 RMK AO2 SLP168 T00721006 401780072

EXPIRED METARs :
  • 150353Z AUTO 33007KT 10SM CLR 09/00 A3001 RMK AO2 SLP162 T00890000
  • 150253Z AUTO 31007KT 10SM CLR 11/M01 A3003 RMK AO2 SLP168 T01061006 51009

TAF KBMG
Valid from the 15 at 00:00 until the 16 at 00:00 UTC


142320Z 1500/1524 29006KT P6SM FEW250
FM150600 33006KT P6SM SCT120
FM151000 30005KT P6SM FEW250 AMD LTD TO CLD VIS AND WIND 1501/1513
KZID FIR / North America



MET'MAP, your aeronautical weather chart ! - Copyright ORBIFLY December 2007 - Disclaimer

ORBIFLY MET'MAP TEAM :

Programming & Development : Alexandra Zaïnal
Concept & original design : Baudouin d'Aumeries
Assistance for programming : Marc-Olivier Méhu
Technical & hardware support : Manuel Goepfert

Contact : metmap@orbifly.com




SOURCES & CREDITS :

   NOAA       Earth
Advisory